sensor_id;sensor_type;location;lat;lon;timestamp;P1;durP1;ratioP1;P2;durP2;ratioP2
3070;SDS011;1546;47.208;9.038;2023-03-14T00:01:21;4.35;;;2.10;;
3070;SDS011;1546;47.208;9.038;2023-03-14T00:03:49;4.22;;;2.00;;
3070;SDS011;1546;47.208;9.038;2023-03-14T00:06:16;3.60;;;1.98;;
3070;SDS011;1546;47.208;9.038;2023-03-14T00:08:44;3.60;;;2.33;;
3070;SDS011;1546;47.208;9.038;2023-03-14T00:11:11;4.47;;;2.08;;
3070;SDS011;1546;47.208;9.038;2023-03-14T00:13:40;5.78;;;3.15;;
3070;SDS011;1546;47.208;9.038;2023-03-14T00:16:08;4.07;;;2.40;;
3070;SDS011;1546;47.208;9.038;2023-03-14T00:18:38;3.30;;;2.20;;
3070;SDS011;1546;47.208;9.038;2023-03-14T00:21:06;3.30;;;1.90;;
3070;SDS011;1546;47.208;9.038;2023-03-14T00:23:34;8.18;;;2.28;;
3070;SDS011;1546;47.208;9.038;2023-03-14T00:26:04;3.38;;;2.15;;
3070;SDS011;1546;47.208;9.038;2023-03-14T00:28:34;3.50;;;2.47;;
3070;SDS011;1546;47.208;9.038;2023-03-14T00:31:01;3.42;;;2.00;;
3070;SDS011;1546;47.208;9.038;2023-03-14T00:33:28;6.05;;;1.80;;
3070;SDS011;1546;47.208;9.038;2023-03-14T00:35:57;4.95;;;2.30;;
3070;SDS011;1546;47.208;9.038;2023-03-14T00:38:25;3.60;;;2.95;;
3070;SDS011;1546;47.208;9.038;2023-03-14T00:40:53;3.80;;;2.30;;
3070;SDS011;1546;47.208;9.038;2023-03-14T00:43:23;4.28;;;2.75;;
3070;SDS011;1546;47.208;9.038;2023-03-14T00:45:51;4.20;;;3.72;;
3070;SDS011;1546;47.208;9.038;2023-03-14T00:48:19;5.38;;;3.90;;
3070;SDS011;1546;47.208;9.038;2023-03-14T00:50:46;4.82;;;3.22;;
3070;SDS011;1546;47.208;9.038;2023-03-14T00:53:15;4.25;;;3.50;;
3070;SDS011;1546;47.208;9.038;2023-03-14T00:55:43;3.95;;;3.25;;
3070;SDS011;1546;47.208;9.038;2023-03-14T00:58:10;3.60;;;2.80;;
3070;SDS011;1546;47.208;9.038;2023-03-14T01:00:38;3.65;;;2.47;;
3070;SDS011;1546;47.208;9.038;2023-03-14T01:03:06;3.20;;;1.90;;
3070;SDS011;1546;47.208;9.038;2023-03-14T01:05:33;4.30;;;2.63;;
3070;SDS011;1546;47.208;9.038;2023-03-14T01:08:00;2.85;;;0.98;;
3070;SDS011;1546;47.208;9.038;2023-03-14T01:10:29;3.63;;;1.25;;
3070;SDS011;1546;47.208;9.038;2023-03-14T01:12:57;3.80;;;2.20;;
3070;SDS011;1546;47.208;9.038;2023-03-14T01:15:24;4.80;;;3.30;;
3070;SDS011;1546;47.208;9.038;2023-03-14T01:17:51;3.95;;;2.40;;
3070;SDS011;1546;47.208;9.038;2023-03-14T01:20:17;4.28;;;1.30;;
3070;SDS011;1546;47.208;9.038;2023-03-14T01:22:44;3.15;;;1.98;;
3070;SDS011;1546;47.208;9.038;2023-03-14T01:25:12;3.22;;;2.40;;
3070;SDS011;1546;47.208;9.038;2023-03-14T01:27:42;3.10;;;2.05;;
3070;SDS011;1546;47.208;9.038;2023-03-14T01:30:09;3.35;;;2.22;;
3070;SDS011;1546;47.208;9.038;2023-03-14T01:32:38;4.15;;;2.63;;
3070;SDS011;1546;47.208;9.038;2023-03-14T01:35:05;4.28;;;2.10;;
3070;SDS011;1546;47.208;9.038;2023-03-14T01:37:33;4.10;;;3.70;;
3070;SDS011;1546;47.208;9.038;2023-03-14T01:39:59;4.47;;;2.33;;
3070;SDS011;1546;47.208;9.038;2023-03-14T01:42:28;3.40;;;2.70;;
3070;SDS011;1546;47.208;9.038;2023-03-14T01:44:57;3.40;;;2.90;;
3070;SDS011;1546;47.208;9.038;2023-03-14T01:47:25;4.15;;;3.35;;
3070;SDS011;1546;47.208;9.038;2023-03-14T01:49:53;3.95;;;3.20;;
3070;SDS011;1546;47.208;9.038;2023-03-14T01:52:24;3.50;;;2.70;;
3070;SDS011;1546;47.208;9.038;2023-03-14T01:54:54;4.03;;;3.72;;
3070;SDS011;1546;47.208;9.038;2023-03-14T01:57:25;3.95;;;3.65;;
3070;SDS011;1546;47.208;9.038;2023-03-14T01:59:58;4.30;;;3.90;;
3070;SDS011;1546;47.208;9.038;2023-03-14T02:02:33;5.00;;;4.60;;
3070;SDS011;1546;47.208;9.038;2023-03-14T02:05:01;6.75;;;6.35;;
3070;SDS011;1546;47.208;9.038;2023-03-14T02:07:30;6.38;;;5.88;;
3070;SDS011;1546;47.208;9.038;2023-03-14T02:10:03;6.85;;;5.95;;
3070;SDS011;1546;47.208;9.038;2023-03-14T02:12:32;6.72;;;6.22;;
3070;SDS011;1546;47.208;9.038;2023-03-14T02:15:02;8.13;;;7.53;;
3070;SDS011;1546;47.208;9.038;2023-03-14T02:17:30;6.85;;;6.35;;
3070;SDS011;1546;47.208;9.038;2023-03-14T02:20:03;7.80;;;7.30;;
3070;SDS011;1546;47.208;9.038;2023-03-14T02:22:37;8.60;;;8.10;;
3070;SDS011;1546;47.208;9.038;2023-03-14T02:25:07;6.45;;;6.05;;
3070;SDS011;1546;47.208;9.038;2023-03-14T02:27:38;5.85;;;5.45;;
3070;SDS011;1546;47.208;9.038;2023-03-14T02:30:06;5.55;;;5.05;;
3070;SDS011;1546;47.208;9.038;2023-03-14T02:32:39;7.80;;;7.30;;
3070;SDS011;1546;47.208;9.038;2023-03-14T02:35:09;6.70;;;6.20;;
3070;SDS011;1546;47.208;9.038;2023-03-14T02:37:38;6.53;;;6.10;;
3070;SDS011;1546;47.208;9.038;2023-03-14T02:40:09;4.70;;;4.30;;
3070;SDS011;1546;47.208;9.038;2023-03-14T02:42:38;3.97;;;3.58;;
3070;SDS011;1546;47.208;9.038;2023-03-14T02:48:06;4.30;;;3.90;;
3070;SDS011;1546;47.208;9.038;2023-03-14T02:50:35;4.40;;;3.88;;
3070;SDS011;1546;47.208;9.038;2023-03-14T02:53:02;4.90;;;4.50;;
3070;SDS011;1546;47.208;9.038;2023-03-14T02:55:29;6.30;;;5.90;;
3070;SDS011;1546;47.208;9.038;2023-03-14T02:57:57;8.20;;;7.60;;
3070;SDS011;1546;47.208;9.038;2023-03-14T03:00:24;6.95;;;6.45;;
3070;SDS011;1546;47.208;9.038;2023-03-14T03:02:51;7.35;;;6.65;;
3070;SDS011;1546;47.208;9.038;2023-03-14T03:05:18;7.32;;;6.82;;
3070;SDS011;1546;47.208;9.038;2023-03-14T03:07:45;6.32;;;5.75;;
3070;SDS011;1546;47.208;9.038;2023-03-14T03:10:12;7.82;;;7.40;;
3070;SDS011;1546;47.208;9.038;2023-03-14T03:12:38;7.90;;;7.40;;
3070;SDS011;1546;47.208;9.038;2023-03-14T03:15:07;9.10;;;8.50;;
3070;SDS011;1546;47.208;9.038;2023-03-14T03:17:34;8.48;;;7.90;;
3070;SDS011;1546;47.208;9.038;2023-03-14T03:20:02;8.35;;;7.85;;
3070;SDS011;1546;47.208;9.038;2023-03-14T03:22:30;8.45;;;7.95;;
3070;SDS011;1546;47.208;9.038;2023-03-14T03:24:57;6.07;;;5.57;;
3070;SDS011;1546;47.208;9.038;2023-03-14T03:27:24;6.22;;;5.72;;
3070;SDS011;1546;47.208;9.038;2023-03-14T03:29:51;7.22;;;6.72;;
3070;SDS011;1546;47.208;9.038;2023-03-14T03:32:19;8.48;;;7.88;;
3070;SDS011;1546;47.208;9.038;2023-03-14T03:34:45;6.78;;;6.28;;
3070;SDS011;1546;47.208;9.038;2023-03-14T03:37:12;6.72;;;6.22;;
3070;SDS011;1546;47.208;9.038;2023-03-14T03:39:39;6.47;;;5.90;;
3070;SDS011;1546;47.208;9.038;2023-03-14T03:42:06;7.22;;;6.72;;
3070;SDS011;1546;47.208;9.038;2023-03-14T03:44:33;7.88;;;7.38;;
3070;SDS011;1546;47.208;9.038;2023-03-14T03:47:00;9.63;;;9.02;;
3070;SDS011;1546;47.208;9.038;2023-03-14T03:49:29;6.18;;;5.78;;
3070;SDS011;1546;47.208;9.038;2023-03-14T03:51:57;6.68;;;6.18;;
3070;SDS011;1546;47.208;9.038;2023-03-14T03:54:24;6.55;;;5.97;;
3070;SDS011;1546;47.208;9.038;2023-03-14T03:56:51;6.82;;;6.32;;
3070;SDS011;1546;47.208;9.038;2023-03-14T03:59:18;9.85;;;7.00;;
3070;SDS011;1546;47.208;9.038;2023-03-14T04:01:45;6.57;;;6.18;;
3070;SDS011;1546;47.208;9.038;2023-03-14T04:04:12;8.48;;;7.97;;
3070;SDS011;1546;47.208;9.038;2023-03-14T04:06:41;6.50;;;6.00;;
3070;SDS011;1546;47.208;9.038;2023-03-14T04:09:08;7.18;;;6.70;;
3070;SDS011;1546;47.208;9.038;2023-03-14T04:11:35;6.78;;;6.28;;
3070;SDS011;1546;47.208;9.038;2023-03-14T04:14:02;6.18;;;5.65;;
3070;SDS011;1546;47.208;9.038;2023-03-14T04:16:29;5.60;;;5.20;;
3070;SDS011;1546;47.208;9.038;2023-03-14T04:18:57;6.68;;;6.18;;
3070;SDS011;1546;47.208;9.038;2023-03-14T04:21:24;6.30;;;5.90;;
3070;SDS011;1546;47.208;9.038;2023-03-14T04:23:52;5.40;;;5.00;;
3070;SDS011;1546;47.208;9.038;2023-03-14T04:26:19;6.18;;;5.78;;
3070;SDS011;1546;47.208;9.038;2023-03-14T04:28:46;6.43;;;6.03;;
3070;SDS011;1546;47.208;9.038;2023-03-14T04:31:14;6.22;;;5.80;;
3070;SDS011;1546;47.208;9.038;2023-03-14T04:33:43;7.90;;;7.40;;
3070;SDS011;1546;47.208;9.038;2023-03-14T04:36:10;7.28;;;6.88;;
3070;SDS011;1546;47.208;9.038;2023-03-14T04:38:37;7.93;;;7.43;;
3070;SDS011;1546;47.208;9.038;2023-03-14T04:41:06;5.82;;;5.43;;
3070;SDS011;1546;47.208;9.038;2023-03-14T04:43:33;5.85;;;5.45;;
3070;SDS011;1546;47.208;9.038;2023-03-14T04:46:00;5.80;;;5.40;;
3070;SDS011;1546;47.208;9.038;2023-03-14T04:48:27;5.47;;;5.07;;
3070;SDS011;1546;47.208;9.038;2023-03-14T04:50:54;5.22;;;4.82;;
3070;SDS011;1546;47.208;9.038;2023-03-14T04:53:21;4.93;;;3.83;;
3070;SDS011;1546;47.208;9.038;2023-03-14T04:55:48;4.20;;;3.80;;
3070;SDS011;1546;47.208;9.038;2023-03-14T04:58:17;4.22;;;3.83;;
3070;SDS011;1546;47.208;9.038;2023-03-14T05:00:44;4.97;;;4.57;;
3070;SDS011;1546;47.208;9.038;2023-03-14T05:03:11;6.50;;;6.00;;
3070;SDS011;1546;47.208;9.038;2023-03-14T05:05:40;5.18;;;3.40;;
3070;SDS011;1546;47.208;9.038;2023-03-14T05:08:06;3.90;;;3.50;;
3070;SDS011;1546;47.208;9.038;2023-03-14T05:10:33;4.40;;;3.97;;
3070;SDS011;1546;47.208;9.038;2023-03-14T05:13:00;5.55;;;5.05;;
3070;SDS011;1546;47.208;9.038;2023-03-14T05:15:28;4.10;;;3.35;;
3070;SDS011;1546;47.208;9.038;2023-03-14T05:17:55;4.68;;;3.20;;
3070;SDS011;1546;47.208;9.038;2023-03-14T05:20:22;4.05;;;3.33;;
3070;SDS011;1546;47.208;9.038;2023-03-14T05:22:49;4.75;;;2.78;;
3070;SDS011;1546;47.208;9.038;2023-03-14T05:25:15;4.03;;;3.63;;
3070;SDS011;1546;47.208;9.038;2023-03-14T05:27:42;4.72;;;3.92;;
3070;SDS011;1546;47.208;9.038;2023-03-14T05:30:10;4.78;;;3.85;;
3070;SDS011;1546;47.208;9.038;2023-03-14T05:32:38;4.00;;;3.60;;
3070;SDS011;1546;47.208;9.038;2023-03-14T05:35:05;5.95;;;4.20;;
3070;SDS011;1546;47.208;9.038;2023-03-14T05:37:32;4.10;;;2.70;;
3070;SDS011;1546;47.208;9.038;2023-03-14T05:39:59;5.90;;;5.50;;
3070;SDS011;1546;47.208;9.038;2023-03-14T05:42:26;5.15;;;4.75;;
3070;SDS011;1546;47.208;9.038;2023-03-14T05:44:53;5.05;;;4.55;;
3070;SDS011;1546;47.208;9.038;2023-03-14T05:47:20;5.60;;;5.20;;
3070;SDS011;1546;47.208;9.038;2023-03-14T05:49:48;6.07;;;5.68;;
3070;SDS011;1546;47.208;9.038;2023-03-14T05:52:15;4.70;;;4.30;;
3070;SDS011;1546;47.208;9.038;2023-03-14T05:54:42;8.30;;;3.85;;
3070;SDS011;1546;47.208;9.038;2023-03-14T05:57:09;4.07;;;2.22;;
3070;SDS011;1546;47.208;9.038;2023-03-14T05:59:36;4.22;;;2.53;;
3070;SDS011;1546;47.208;9.038;2023-03-14T06:02:03;4.45;;;2.70;;
3070;SDS011;1546;47.208;9.038;2023-03-14T06:04:29;4.00;;;2.78;;
3070;SDS011;1546;47.208;9.038;2023-03-14T06:06:58;4.63;;;2.78;;
3070;SDS011;1546;47.208;9.038;2023-03-14T06:09:24;4.03;;;2.90;;
3070;SDS011;1546;47.208;9.038;2023-03-14T06:11:51;4.18;;;2.95;;
3070;SDS011;1546;47.208;9.038;2023-03-14T06:14:18;3.78;;;3.15;;
3070;SDS011;1546;47.208;9.038;2023-03-14T06:16:45;5.03;;;3.85;;
3070;SDS011;1546;47.208;9.038;2023-03-14T06:19:13;6.65;;;4.53;;
3070;SDS011;1546;47.208;9.038;2023-03-14T06:21:39;4.75;;;4.35;;
3070;SDS011;1546;47.208;9.038;2023-03-14T06:24:08;5.70;;;5.20;;
3070;SDS011;1546;47.208;9.038;2023-03-14T06:26:35;5.22;;;4.65;;
3070;SDS011;1546;47.208;9.038;2023-03-14T06:29:01;5.57;;;5.07;;
3070;SDS011;1546;47.208;9.038;2023-03-14T06:31:28;7.53;;;3.88;;
3070;SDS011;1546;47.208;9.038;2023-03-14T06:33:55;9.18;;;5.40;;
3070;SDS011;1546;47.208;9.038;2023-03-14T06:36:22;3.92;;;2.38;;
3070;SDS011;1546;47.208;9.038;2023-03-14T06:38:49;4.85;;;3.17;;
3070;SDS011;1546;47.208;9.038;2023-03-14T06:41:17;4.20;;;3.63;;
3070;SDS011;1546;47.208;9.038;2023-03-14T06:43:44;4.95;;;3.35;;
3070;SDS011;1546;47.208;9.038;2023-03-14T06:46:11;3.83;;;2.70;;
3070;SDS011;1546;47.208;9.038;2023-03-14T06:48:38;6.18;;;2.40;;
3070;SDS011;1546;47.208;9.038;2023-03-14T06:51:05;4.65;;;3.20;;
3070;SDS011;1546;47.208;9.038;2023-03-14T06:53:32;6.53;;;4.55;;
3070;SDS011;1546;47.208;9.038;2023-03-14T06:55:59;19.98;;;4.15;;
3070;SDS011;1546;47.208;9.038;2023-03-14T06:58:27;6.53;;;3.40;;
3070;SDS011;1546;47.208;9.038;2023-03-14T07:00:54;4.65;;;2.17;;
3070;SDS011;1546;47.208;9.038;2023-03-14T07:03:22;6.95;;;2.95;;
3070;SDS011;1546;47.208;9.038;2023-03-14T07:05:49;3.25;;;2.80;;
3070;SDS011;1546;47.208;9.038;2023-03-14T07:08:15;4.40;;;1.67;;
3070;SDS011;1546;47.208;9.038;2023-03-14T07:10:42;3.30;;;1.40;;
3070;SDS011;1546;47.208;9.038;2023-03-14T07:13:09;5.90;;;1.20;;
3070;SDS011;1546;47.208;9.038;2023-03-14T07:15:37;2.70;;;0.82;;
3070;SDS011;1546;47.208;9.038;2023-03-14T07:18:04;3.00;;;1.00;;
3070;SDS011;1546;47.208;9.038;2023-03-14T07:20:31;3.95;;;1.45;;
3070;SDS011;1546;47.208;9.038;2023-03-14T07:22:58;3.60;;;1.50;;
3070;SDS011;1546;47.208;9.038;2023-03-14T07:25:27;4.10;;;1.60;;
3070;SDS011;1546;47.208;9.038;2023-03-14T07:27:54;3.58;;;1.27;;
3070;SDS011;1546;47.208;9.038;2023-03-14T07:30:21;5.95;;;1.33;;
3070;SDS011;1546;47.208;9.038;2023-03-14T07:32:50;3.30;;;0.88;;
3070;SDS011;1546;47.208;9.038;2023-03-14T07:35:17;4.05;;;1.05;;
3070;SDS011;1546;47.208;9.038;2023-03-14T07:37:44;4.80;;;1.60;;
3070;SDS011;1546;47.208;9.038;2023-03-14T07:40:11;4.45;;;1.42;;
3070;SDS011;1546;47.208;9.038;2023-03-14T07:42:40;5.35;;;1.55;;
3070;SDS011;1546;47.208;9.038;2023-03-14T07:45:07;3.55;;;1.15;;
3070;SDS011;1546;47.208;9.038;2023-03-14T07:47:35;3.97;;;1.30;;
3070;SDS011;1546;47.208;9.038;2023-03-14T07:50:04;4.40;;;1.70;;
3070;SDS011;1546;47.208;9.038;2023-03-14T07:52:31;4.97;;;1.67;;
3070;SDS011;1546;47.208;9.038;2023-03-14T07:54:58;3.30;;;1.27;;
3070;SDS011;1546;47.208;9.038;2023-03-14T07:57:25;4.65;;;1.50;;
3070;SDS011;1546;47.208;9.038;2023-03-14T07:59:52;4.00;;;1.55;;
3070;SDS011;1546;47.208;9.038;2023-03-14T08:02:19;5.13;;;2.70;;
3070;SDS011;1546;47.208;9.038;2023-03-14T08:04:47;6.80;;;2.88;;
3070;SDS011;1546;47.208;9.038;2023-03-14T08:07:16;3.80;;;1.88;;
3070;SDS011;1546;47.208;9.038;2023-03-14T08:09:43;4.45;;;1.85;;
3070;SDS011;1546;47.208;9.038;2023-03-14T08:12:10;4.50;;;1.90;;
3070;SDS011;1546;47.208;9.038;2023-03-14T08:14:36;4.60;;;2.45;;
3070;SDS011;1546;47.208;9.038;2023-03-14T08:17:03;3.95;;;1.25;;
3070;SDS011;1546;47.208;9.038;2023-03-14T08:19:33;4.07;;;1.80;;
3070;SDS011;1546;47.208;9.038;2023-03-14T08:22:00;3.78;;;1.35;;
3070;SDS011;1546;47.208;9.038;2023-03-14T08:24:29;3.63;;;1.50;;
3070;SDS011;1546;47.208;9.038;2023-03-14T08:26:55;5.28;;;1.98;;
3070;SDS011;1546;47.208;9.038;2023-03-14T08:29:22;3.67;;;1.60;;
3070;SDS011;1546;47.208;9.038;2023-03-14T08:31:49;3.58;;;1.30;;
3070;SDS011;1546;47.208;9.038;2023-03-14T08:34:16;3.45;;;1.25;;
3070;SDS011;1546;47.208;9.038;2023-03-14T08:36:43;3.30;;;0.95;;
3070;SDS011;1546;47.208;9.038;2023-03-14T08:39:10;3.45;;;1.20;;
3070;SDS011;1546;47.208;9.038;2023-03-14T08:41:39;4.40;;;1.23;;
3070;SDS011;1546;47.208;9.038;2023-03-14T08:44:07;3.70;;;1.60;;
3070;SDS011;1546;47.208;9.038;2023-03-14T08:46:36;3.83;;;1.20;;
3070;SDS011;1546;47.208;9.038;2023-03-14T08:49:03;4.85;;;1.63;;
3070;SDS011;1546;47.208;9.038;2023-03-14T08:51:30;3.58;;;1.20;;
3070;SDS011;1546;47.208;9.038;2023-03-14T08:53:57;3.53;;;1.35;;
3070;SDS011;1546;47.208;9.038;2023-03-14T08:56:25;4.10;;;1.35;;
3070;SDS011;1546;47.208;9.038;2023-03-14T08:58:53;3.70;;;1.33;;
3070;SDS011;1546;47.208;9.038;2023-03-14T09:01:20;3.30;;;1.20;;
3070;SDS011;1546;47.208;9.038;2023-03-14T09:03:49;3.33;;;1.23;;
3070;SDS011;1546;47.208;9.038;2023-03-14T09:06:16;4.00;;;1.50;;
3070;SDS011;1546;47.208;9.038;2023-03-14T09:08:43;3.70;;;1.30;;
3070;SDS011;1546;47.208;9.038;2023-03-14T09:11:10;4.30;;;1.42;;
3070;SDS011;1546;47.208;9.038;2023-03-14T09:13:37;4.55;;;1.42;;
3070;SDS011;1546;47.208;9.038;2023-03-14T09:16:06;3.70;;;1.30;;
3070;SDS011;1546;47.208;9.038;2023-03-14T09:18:34;4.00;;;1.23;;
3070;SDS011;1546;47.208;9.038;2023-03-14T09:21:02;3.97;;;1.25;;
3070;SDS011;1546;47.208;9.038;2023-03-14T09:23:29;4.68;;;1.50;;
3070;SDS011;1546;47.208;9.038;2023-03-14T09:25:56;3.20;;;1.00;;
3070;SDS011;1546;47.208;9.038;2023-03-14T09:28:23;3.95;;;1.50;;
3070;SDS011;1546;47.208;9.038;2023-03-14T09:30:50;4.68;;;1.23;;
3070;SDS011;1546;47.208;9.038;2023-03-14T09:33:18;3.33;;;1.17;;
3070;SDS011;1546;47.208;9.038;2023-03-14T09:35:45;4.63;;;1.27;;
3070;SDS011;1546;47.208;9.038;2023-03-14T09:38:12;3.50;;;1.40;;
3070;SDS011;1546;47.208;9.038;2023-03-14T09:40:40;4.30;;;1.65;;
3070;SDS011;1546;47.208;9.038;2023-03-14T09:43:08;3.97;;;1.45;;
3070;SDS011;1546;47.208;9.038;2023-03-14T09:45:38;6.22;;;2.38;;
3070;SDS011;1546;47.208;9.038;2023-03-14T09:48:10;5.35;;;1.70;;
3070;SDS011;1546;47.208;9.038;2023-03-14T09:50:44;4.65;;;2.13;;
3070;SDS011;1546;47.208;9.038;2023-03-14T09:53:15;4.43;;;1.80;;
3070;SDS011;1546;47.208;9.038;2023-03-14T09:55:44;6.03;;;2.20;;
3070;SDS011;1546;47.208;9.038;2023-03-14T09:58:14;4.32;;;1.67;;
3070;SDS011;1546;47.208;9.038;2023-03-14T10:00:44;7.43;;;2.00;;
3070;SDS011;1546;47.208;9.038;2023-03-14T10:03:20;3.83;;;1.50;;
3070;SDS011;1546;47.208;9.038;2023-03-14T10:05:52;4.40;;;1.55;;
3070;SDS011;1546;47.208;9.038;2023-03-14T10:08:20;4.85;;;1.60;;
3070;SDS011;1546;47.208;9.038;2023-03-14T10:10:48;3.50;;;1.40;;
3070;SDS011;1546;47.208;9.038;2023-03-14T10:13:15;4.35;;;1.02;;
3070;SDS011;1546;47.208;9.038;2023-03-14T10:15:47;4.05;;;1.75;;
3070;SDS011;1546;47.208;9.038;2023-03-14T10:18:17;3.70;;;1.02;;
3070;SDS011;1546;47.208;9.038;2023-03-14T10:20:45;7.22;;;1.40;;
3070;SDS011;1546;47.208;9.038;2023-03-14T10:23:22;3.30;;;1.05;;
3070;SDS011;1546;47.208;9.038;2023-03-14T10:28:43;3.13;;;0.77;;
3070;SDS011;1546;47.208;9.038;2023-03-14T10:31:11;3.35;;;0.80;;
3070;SDS011;1546;47.208;9.038;2023-03-14T10:33:38;4.03;;;0.88;;
3070;SDS011;1546;47.208;9.038;2023-03-14T10:36:14;4.57;;;1.40;;
3070;SDS011;1546;47.208;9.038;2023-03-14T10:38:46;3.35;;;0.90;;
3070;SDS011;1546;47.208;9.038;2023-03-14T10:41:14;5.47;;;0.93;;
3070;SDS011;1546;47.208;9.038;2023-03-14T10:43:43;3.85;;;1.15;;
3070;SDS011;1546;47.208;9.038;2023-03-14T10:46:12;6.00;;;1.80;;
3070;SDS011;1546;47.208;9.038;2023-03-14T10:48:42;3.83;;;1.35;;
3070;SDS011;1546;47.208;9.038;2023-03-14T10:51:11;4.07;;;1.20;;
3070;SDS011;1546;47.208;9.038;2023-03-14T10:53:46;4.13;;;0.90;;
3070;SDS011;1546;47.208;9.038;2023-03-14T10:56:15;5.95;;;1.63;;
3070;SDS011;1546;47.208;9.038;2023-03-14T10:58:44;6.28;;;1.30;;
3070;SDS011;1546;47.208;9.038;2023-03-14T11:01:25;4.05;;;1.63;;
3070;SDS011;1546;47.208;9.038;2023-03-14T11:04:05;4.75;;;1.50;;
3070;SDS011;1546;47.208;9.038;2023-03-14T11:06:41;3.38;;;1.05;;
3070;SDS011;1546;47.208;9.038;2023-03-14T11:09:17;3.60;;;1.23;;
3070;SDS011;1546;47.208;9.038;2023-03-14T11:11:47;3.75;;;1.38;;
3070;SDS011;1546;47.208;9.038;2023-03-14T11:14:19;3.15;;;0.98;;
3070;SDS011;1546;47.208;9.038;2023-03-14T11:16:52;4.03;;;1.50;;
3070;SDS011;1546;47.208;9.038;2023-03-14T11:19:28;3.13;;;1.05;;
3070;SDS011;1546;47.208;9.038;2023-03-14T11:22:14;3.45;;;1.00;;
3070;SDS011;1546;47.208;9.038;2023-03-14T11:24:51;3.70;;;1.38;;
3070;SDS011;1546;47.208;9.038;2023-03-14T11:27:30;6.05;;;1.55;;
3070;SDS011;1546;47.208;9.038;2023-03-14T11:30:03;3.45;;;1.10;;
3070;SDS011;1546;47.208;9.038;2023-03-14T11:32:41;3.40;;;1.08;;
3070;SDS011;1546;47.208;9.038;2023-03-14T11:35:15;3.75;;;1.10;;
3070;SDS011;1546;47.208;9.038;2023-03-14T11:37:46;3.72;;;1.30;;
3070;SDS011;1546;47.208;9.038;2023-03-14T11:40:20;3.30;;;1.05;;
3070;SDS011;1546;47.208;9.038;2023-03-14T11:42:50;3.35;;;1.20;;
3070;SDS011;1546;47.208;9.038;2023-03-14T11:45:22;3.55;;;1.35;;
3070;SDS011;1546;47.208;9.038;2023-03-14T11:47:57;3.22;;;1.10;;
3070;SDS011;1546;47.208;9.038;2023-03-14T11:50:33;4.35;;;1.20;;
3070;SDS011;1546;47.208;9.038;2023-03-14T11:53:03;4.40;;;1.80;;
3070;SDS011;1546;47.208;9.038;2023-03-14T11:55:37;4.72;;;1.55;;
3070;SDS011;1546;47.208;9.038;2023-03-14T11:58:09;4.55;;;1.60;;
3070;SDS011;1546;47.208;9.038;2023-03-14T12:00:41;3.97;;;1.70;;
3070;SDS011;1546;47.208;9.038;2023-03-14T12:03:11;3.85;;;1.80;;
3070;SDS011;1546;47.208;9.038;2023-03-14T12:05:46;4.28;;;2.10;;
3070;SDS011;1546;47.208;9.038;2023-03-14T12:11:17;3.70;;;1.40;;
3070;SDS011;1546;47.208;9.038;2023-03-14T12:13:47;4.57;;;1.20;;
3070;SDS011;1546;47.208;9.038;2023-03-14T12:16:25;3.22;;;1.00;;
3070;SDS011;1546;47.208;9.038;2023-03-14T12:19:13;2.75;;;0.70;;
3070;SDS011;1546;47.208;9.038;2023-03-14T12:22:05;2.80;;;0.80;;
3070;SDS011;1546;47.208;9.038;2023-03-14T12:25:02;2.72;;;0.70;;
3070;SDS011;1546;47.208;9.038;2023-03-14T12:28:02;4.00;;;0.90;;
3070;SDS011;1546;47.208;9.038;2023-03-14T12:30:41;3.58;;;1.00;;
3070;SDS011;1546;47.208;9.038;2023-03-14T12:33:12;3.10;;;0.80;;
3070;SDS011;1546;47.208;9.038;2023-03-14T12:36:01;4.00;;;0.90;;
3070;SDS011;1546;47.208;9.038;2023-03-14T12:41:38;2.75;;;0.70;;
3070;SDS011;1546;47.208;9.038;2023-03-14T12:50:19;3.33;;;0.70;;
3070;SDS011;1546;47.208;9.038;2023-03-14T12:55:46;2.70;;;0.70;;
3070;SDS011;1546;47.208;9.038;2023-03-14T12:58:20;2.70;;;0.68;;
3070;SDS011;1546;47.208;9.038;2023-03-14T13:00:55;2.75;;;0.63;;
3070;SDS011;1546;47.208;9.038;2023-03-14T13:03:26;2.80;;;0.70;;
3070;SDS011;1546;47.208;9.038;2023-03-14T13:06:05;2.80;;;0.70;;
3070;SDS011;1546;47.208;9.038;2023-03-14T13:08:36;3.13;;;0.70;;
3070;SDS011;1546;47.208;9.038;2023-03-14T13:11:05;2.70;;;0.60;;
3070;SDS011;1546;47.208;9.038;2023-03-14T13:13:35;2.70;;;0.50;;
3070;SDS011;1546;47.208;9.038;2023-03-14T13:16:10;2.60;;;0.50;;
3070;SDS011;1546;47.208;9.038;2023-03-14T13:18:42;3.03;;;0.60;;
3070;SDS011;1546;47.208;9.038;2023-03-14T13:21:10;2.60;;;0.50;;
3070;SDS011;1546;47.208;9.038;2023-03-14T13:23:41;2.70;;;0.70;;
3070;SDS011;1546;47.208;9.038;2023-03-14T13:26:20;2.72;;;0.70;;
3070;SDS011;1546;47.208;9.038;2023-03-14T13:28:49;2.70;;;0.60;;
3070;SDS011;1546;47.208;9.038;2023-03-14T13:31:20;2.80;;;0.60;;
3070;SDS011;1546;47.208;9.038;2023-03-14T13:33:56;2.95;;;0.80;;
3070;SDS011;1546;47.208;9.038;2023-03-14T13:36:24;2.60;;;0.60;;
3070;SDS011;1546;47.208;9.038;2023-03-14T13:38:55;3.53;;;1.02;;
3070;SDS011;1546;47.208;9.038;2023-03-14T13:41:23;4.88;;;0.80;;
3070;SDS011;1546;47.208;9.038;2023-03-14T13:43:50;3.10;;;0.70;;
3070;SDS011;1546;47.208;9.038;2023-03-14T13:46:21;2.80;;;0.60;;
3070;SDS011;1546;47.208;9.038;2023-03-14T13:48:52;2.92;;;0.73;;
3070;SDS011;1546;47.208;9.038;2023-03-14T13:51:22;2.80;;;0.60;;
3070;SDS011;1546;47.208;9.038;2023-03-14T13:53:50;3.63;;;0.70;;
3070;SDS011;1546;47.208;9.038;2023-03-14T13:56:19;3.05;;;0.70;;
3070;SDS011;1546;47.208;9.038;2023-03-14T13:58:47;2.80;;;0.60;;
3070;SDS011;1546;47.208;9.038;2023-03-14T14:01:15;3.75;;;0.90;;
3070;SDS011;1546;47.208;9.038;2023-03-14T14:03:46;3.00;;;0.60;;
3070;SDS011;1546;47.208;9.038;2023-03-14T14:06:26;3.65;;;0.60;;
3070;SDS011;1546;47.208;9.038;2023-03-14T14:08:55;2.80;;;0.60;;
3070;SDS011;1546;47.208;9.038;2023-03-14T14:11:28;2.80;;;0.60;;
3070;SDS011;1546;47.208;9.038;2023-03-14T14:14:10;3.00;;;0.65;;
3070;SDS011;1546;47.208;9.038;2023-03-14T14:16:41;2.80;;;0.60;;
3070;SDS011;1546;47.208;9.038;2023-03-14T14:19:12;2.95;;;0.60;;
3070;SDS011;1546;47.208;9.038;2023-03-14T14:21:39;3.40;;;0.73;;
3070;SDS011;1546;47.208;9.038;2023-03-14T14:24:07;3.00;;;0.80;;
3070;SDS011;1546;47.208;9.038;2023-03-14T14:26:39;2.72;;;0.57;;
3070;SDS011;1546;47.208;9.038;2023-03-14T14:29:06;2.70;;;0.50;;
3070;SDS011;1546;47.208;9.038;2023-03-14T14:31:48;3.78;;;0.60;;
3070;SDS011;1546;47.208;9.038;2023-03-14T14:34:28;3.60;;;0.70;;
3070;SDS011;1546;47.208;9.038;2023-03-14T14:36:54;2.90;;;0.70;;
3070;SDS011;1546;47.208;9.038;2023-03-14T14:39:23;2.80;;;0.60;;
3070;SDS011;1546;47.208;9.038;2023-03-14T14:41:53;3.10;;;0.60;;
3070;SDS011;1546;47.208;9.038;2023-03-14T14:44:21;2.78;;;0.70;;
3070;SDS011;1546;47.208;9.038;2023-03-14T14:46:55;2.95;;;0.70;;
3070;SDS011;1546;47.208;9.038;2023-03-14T14:49:28;2.95;;;0.68;;
3070;SDS011;1546;47.208;9.038;2023-03-14T14:52:00;2.80;;;0.60;;
3070;SDS011;1546;47.208;9.038;2023-03-14T14:54:33;3.00;;;0.60;;
3070;SDS011;1546;47.208;9.038;2023-03-14T14:57:03;3.33;;;0.70;;
3070;SDS011;1546;47.208;9.038;2023-03-14T14:59:31;5.05;;;0.60;;
3070;SDS011;1546;47.208;9.038;2023-03-14T15:02:09;2.90;;;0.60;;
3070;SDS011;1546;47.208;9.038;2023-03-14T15:04:56;3.85;;;0.60;;
3070;SDS011;1546;47.208;9.038;2023-03-14T15:07:23;4.57;;;0.93;;
3070;SDS011;1546;47.208;9.038;2023-03-14T15:09:50;3.25;;;0.80;;
3070;SDS011;1546;47.208;9.038;2023-03-14T15:12:17;2.80;;;0.60;;
3070;SDS011;1546;47.208;9.038;2023-03-14T15:14:45;2.65;;;0.60;;
3070;SDS011;1546;47.208;9.038;2023-03-14T15:17:12;2.80;;;0.60;;
3070;SDS011;1546;47.208;9.038;2023-03-14T15:19:39;2.70;;;0.60;;
3070;SDS011;1546;47.208;9.038;2023-03-14T15:22:09;3.10;;;0.70;;
3070;SDS011;1546;47.208;9.038;2023-03-14T15:24:39;2.88;;;0.65;;
3070;SDS011;1546;47.208;9.038;2023-03-14T15:27:09;4.00;;;0.70;;
3070;SDS011;1546;47.208;9.038;2023-03-14T15:29:39;3.35;;;0.60;;
3070;SDS011;1546;47.208;9.038;2023-03-14T15:32:08;3.58;;;0.90;;
3070;SDS011;1546;47.208;9.038;2023-03-14T15:34:37;3.00;;;0.70;;
3070;SDS011;1546;47.208;9.038;2023-03-14T15:37:04;5.72;;;0.70;;
3070;SDS011;1546;47.208;9.038;2023-03-14T15:39:33;4.10;;;0.90;;
3070;SDS011;1546;47.208;9.038;2023-03-14T15:42:00;3.47;;;0.60;;
3070;SDS011;1546;47.208;9.038;2023-03-14T15:44:27;2.80;;;0.60;;
3070;SDS011;1546;47.208;9.038;2023-03-14T15:46:54;2.90;;;0.60;;
3070;SDS011;1546;47.208;9.038;2023-03-14T15:49:21;4.10;;;1.02;;